Labadie, Missouri
Current Conditions -  °F | °C
As of 10:15 AM on Sunday 25 Jan 2015 (Local Time) from KFYG Reporting Station
Overcast Overcast  
Wind Chill: 41°   Ceiling: 1600
Heat Index: 46°   Visibility: 10mi
Dew Point: 41°   Wind: 12mph
Humidity: 81%   Direction: 300°WNW
Pressure: 29.59"   Gusts: 17mph
Location:  38.53°N, 90.85°W
Report Text: KFYG 251615Z AUTO 30010G15KT 10SM OVC016 08/05 A2959 RMK AO2
Loading
Personal Weather Stations






























Interactive Weather Map New forecast layout! Learn more

10-Day Weather Forecast

Advertisements
Track Severe Weather on mobile